createdAt,value
2022-12-11T00:02:12.152Z,101176.25
2022-12-11T00:06:15.658Z,101184.75
2022-12-11T00:10:17.133Z,101177.69
2022-12-11T00:14:18.745Z,101184.09
2022-12-11T00:18:20.187Z,101181.91
2022-12-11T00:22:21.743Z,101182.50
2022-12-11T00:26:23.388Z,101174.53
2022-12-11T00:30:25.506Z,101162.47
2022-12-11T00:34:27.007Z,101162.69
2022-12-11T00:38:28.595Z,101148.13
2022-12-11T00:42:30.074Z,101135.78
2022-12-11T00:46:31.706Z,101135.63
2022-12-11T00:50:33.801Z,101134.75
2022-12-11T00:54:35.272Z,101138.25
2022-12-11T00:58:36.746Z,101142.59
2022-12-11T01:02:38.242Z,101147.44
2022-12-11T01:06:39.930Z,101134.06
2022-12-11T01:10:41.369Z,101149.34
2022-12-11T01:14:42.941Z,101151.53
2022-12-11T01:18:44.386Z,101146.81
2022-12-11T01:22:45.841Z,101142.44
2022-12-11T01:26:47.260Z,101136.84
2022-12-11T01:30:48.751Z,101139.56
2022-12-11T01:34:50.439Z,101154.69
2022-12-11T01:38:54.245Z,101141.84
2022-12-11T01:42:55.709Z,101146.94
2022-12-11T01:46:57.118Z,101145.81
2022-12-11T01:51:02.461Z,101137.63
2022-12-11T01:55:04.283Z,101148.25
2022-12-11T01:59:07.902Z,101142.28
2022-12-11T02:03:09.439Z,101131.16
2022-12-11T02:07:10.859Z,101137.53
2022-12-11T02:11:23.987Z,101140.09
2022-12-11T02:15:35.777Z,101142.88
2022-12-11T02:20:03.785Z,101139.31
2022-12-11T02:24:24.881Z,101134.28
2022-12-11T02:28:33.518Z,101136.56
2022-12-11T02:32:51.006Z,101147.16
2022-12-11T02:36:57.051Z,101150.66
2022-12-11T02:41:00.306Z,101145.81
2022-12-11T02:45:04.742Z,101139.91
2022-12-11T02:49:08.014Z,101136.28
2022-12-11T02:53:12.353Z,101132.13
2022-12-11T02:57:21.442Z,101131.56
2022-12-11T03:01:22.937Z,101128.47
2022-12-11T03:05:24.523Z,101126.78
2022-12-11T03:09:27.486Z,101122.66
2022-12-11T03:13:29.403Z,101131.56
2022-12-11T03:18:00.986Z,101120.56
2022-12-11T03:22:33.738Z,101118.72
2022-12-11T03:26:51.851Z,101116.72
2022-12-11T03:30:56.908Z,101111.91
2022-12-11T03:35:05.129Z,101107.97
2022-12-11T03:39:15.231Z,101103.69
2022-12-11T03:43:17.893Z,101101.59
2022-12-11T03:47:24.143Z,101099.13
2022-12-11T03:51:25.877Z,101085.50
2022-12-11T03:55:29.471Z,101093.34
2022-12-11T03:59:30.927Z,101099.81
2022-12-11T04:03:32.344Z,101104.44
2022-12-11T04:07:33.991Z,101103.81
2022-12-11T04:11:35.519Z,101093.38
2022-12-11T04:15:38.094Z,101094.09
2022-12-11T04:19:58.411Z,101088.53
2022-12-11T04:24:15.164Z,101103.19
2022-12-11T04:28:16.824Z,101088.28
2022-12-11T04:32:18.230Z,101083.91
2022-12-11T04:36:19.667Z,101086.28
2022-12-11T04:40:21.297Z,101086.78
2022-12-11T04:44:22.689Z,101081.97
2022-12-11T04:48:24.101Z,101079.28
2022-12-11T04:52:25.511Z,101076.84
2022-12-11T04:56:27.120Z,101081.75
2022-12-11T05:00:28.555Z,101077.50
2022-12-11T05:04:34.771Z,101076.94
2022-12-11T05:08:38.685Z,101079.00
2022-12-11T05:12:40.066Z,101071.50
2022-12-11T05:16:41.503Z,101071.66
2022-12-11T05:20:42.927Z,101066.28
2022-12-11T05:24:45.562Z,101060.00
2022-12-11T05:28:51.362Z,101060.66
2022-12-11T05:32:52.757Z,101060.00
2022-12-11T05:36:55.127Z,101045.28
2022-12-11T05:41:01.997Z,101044.78
2022-12-11T05:45:04.824Z,101054.50
2022-12-11T05:49:06.551Z,101045.44
2022-12-11T05:53:08.027Z,101051.34
2022-12-11T05:57:09.515Z,101049.63
2022-12-11T06:01:14.335Z,101046.47
2022-12-11T06:05:15.762Z,101050.41
2022-12-11T06:09:17.222Z,101053.50
2022-12-11T06:13:18.662Z,101051.78
2022-12-11T06:17:20.043Z,101045.53
2022-12-11T06:21:24.795Z,101063.53
2022-12-11T06:25:26.540Z,101058.31
2022-12-11T06:29:27.934Z,101057.53
2022-12-11T06:33:30.111Z,101064.47
2022-12-11T06:37:31.530Z,101060.94
2022-12-11T06:41:32.973Z,101065.25
2022-12-11T06:45:34.609Z,101063.56
2022-12-11T06:49:36.153Z,101063.38
2022-12-11T06:53:38.081Z,101073.44
2022-12-11T06:57:39.639Z,101065.47
2022-12-11T07:01:41.078Z,101059.94
2022-12-11T07:05:42.519Z,101050.31
2022-12-11T07:09:43.979Z,101053.22
2022-12-11T07:13:46.406Z,101061.69
2022-12-11T07:17:47.868Z,101063.06
2022-12-11T07:21:49.411Z,101066.50
2022-12-11T07:25:51.133Z,101065.59
2022-12-11T07:29:52.606Z,101063.28
2022-12-11T07:34:00.051Z,101060.81
2022-12-11T07:38:01.702Z,101057.31
2022-12-11T07:42:03.203Z,101055.53
2022-12-11T07:46:07.700Z,101052.78
2022-12-11T07:50:09.462Z,101052.72
2022-12-11T07:54:16.325Z,101049.88
2022-12-11T07:58:17.787Z,101057.44
2022-12-11T08:02:19.433Z,101056.25
2022-12-11T08:06:29.517Z,101055.50
2022-12-11T08:10:30.930Z,101043.25
2022-12-11T08:14:32.592Z,101047.59
2022-12-11T08:18:35.840Z,101051.94
2022-12-11T08:22:37.400Z,101055.41
2022-12-11T08:26:39.291Z,101048.94
2022-12-11T08:30:41.048Z,101048.09
2022-12-11T08:34:42.729Z,101051.91
2022-12-11T08:38:44.458Z,101053.69
2022-12-11T08:42:45.899Z,101054.75
2022-12-11T08:46:48.060Z,101055.41
2022-12-11T08:50:49.499Z,101052.53
2022-12-11T08:54:50.915Z,101049.34
2022-12-11T08:58:54.290Z,101060.97
2022-12-11T09:02:55.706Z,101054.28
2022-12-11T09:06:57.260Z,101049.72
2022-12-11T09:11:06.278Z,101057.00
2022-12-11T09:15:08.052Z,101053.19
2022-12-11T09:19:14.092Z,101049.78
2022-12-11T09:23:15.512Z,101048.38
2022-12-11T09:27:17.092Z,101047.28
2022-12-11T09:31:24.080Z,101038.44
2022-12-11T09:35:25.586Z,101041.59
2022-12-11T09:39:27.092Z,101042.53
2022-12-11T09:43:44.215Z,101040.63
2022-12-11T09:47:50.494Z,101040.38
2022-12-11T09:52:15.507Z,101028.31
2022-12-11T09:56:32.122Z,101020.41
2022-12-11T10:00:41.287Z,101033.91
2022-12-11T10:05:10.898Z,101028.59
2022-12-11T10:09:25.375Z,101024.94
2022-12-11T10:14:02.797Z,101017.81
2022-12-11T10:18:09.762Z,101010.09
2022-12-11T10:22:30.449Z,101012.88
2022-12-11T10:26:31.926Z,101011.63
2022-12-11T10:30:37.939Z,101002.84
2022-12-11T10:34:44.067Z,101001.75
2022-12-11T10:38:46.778Z,100998.44
2022-12-11T10:42:53.149Z,100994.63
2022-12-11T10:47:20.879Z,100995.78
2022-12-11T10:51:25.346Z,100986.47
2022-12-11T10:55:45.254Z,100981.31
2022-12-11T10:59:48.785Z,100991.50
2022-12-11T11:04:14.481Z,100986.63
2022-12-11T11:08:22.784Z,100990.53
2022-12-11T11:12:27.184Z,100986.03
2022-12-11T11:16:29.240Z,100981.19
2022-12-11T11:20:34.089Z,100975.91
2022-12-11T11:24:40.605Z,100973.38
2022-12-11T11:28:54.541Z,100970.69
2022-12-11T11:33:03.478Z,100961.44
2022-12-11T11:37:05.946Z,100954.16
2022-12-11T11:41:17.105Z,100947.25
2022-12-11T11:45:31.741Z,100942.28
2022-12-11T11:49:58.159Z,100949.56
2022-12-11T11:54:03.059Z,100949.44
2022-12-11T11:58:15.767Z,100946.81
2022-12-11T12:02:19.491Z,100948.25
2022-12-11T12:06:39.601Z,100948.59
2022-12-11T12:10:49.688Z,100938.81
2022-12-11T12:15:01.858Z,100941.44
2022-12-11T12:19:23.026Z,100939.63
2022-12-11T12:23:43.538Z,100937.13
2022-12-11T12:27:59.702Z,100943.41
2022-12-11T12:32:31.799Z,100932.94
2022-12-11T12:37:00.922Z,100942.16
2022-12-11T12:41:20.460Z,100941.28
2022-12-11T12:45:57.254Z,100936.53
2022-12-11T12:50:01.133Z,100924.53
2022-12-11T12:54:09.146Z,100923.31
2022-12-11T12:58:26.614Z,100928.00
2022-12-11T13:02:29.586Z,100924.16
2022-12-11T13:06:41.544Z,100915.69
2022-12-11T13:10:43.276Z,100913.19
2022-12-11T13:14:44.716Z,100913.25
2022-12-11T13:18:48.217Z,100927.38
2022-12-11T13:22:54.905Z,100916.66
2022-12-11T13:26:56.843Z,100924.72
2022-12-11T13:31:15.550Z,100924.69
2022-12-11T13:35:17.949Z,100933.03
2022-12-11T13:39:30.135Z,100930.16
2022-12-11T13:43:33.216Z,100927.72
2022-12-11T13:47:35.884Z,100931.44
2022-12-11T13:51:37.839Z,100937.34
2022-12-11T13:55:39.277Z,100938.41
2022-12-11T13:59:48.839Z,100939.31
2022-12-11T14:04:09.345Z,100934.19
2022-12-11T14:08:12.452Z,100938.50
2022-12-11T14:12:17.739Z,100947.25
2022-12-11T14:16:24.549Z,100942.41
2022-12-11T14:20:28.982Z,100934.84
2022-12-11T14:24:31.734Z,100941.94
2022-12-11T14:28:41.039Z,100938.25
2022-12-11T14:32:44.669Z,100939.16
2022-12-11T14:36:48.173Z,100931.34
2022-12-11T14:40:53.768Z,100931.47
2022-12-11T14:45:12.576Z,100937.59
2022-12-11T14:49:23.798Z,100934.00
2022-12-11T14:53:35.518Z,100929.63
2022-12-11T14:57:41.670Z,100939.25
2022-12-11T15:01:43.130Z,100939.03
2022-12-11T15:05:55.343Z,100942.41
2022-12-11T15:09:56.868Z,100951.03
2022-12-11T15:14:02.714Z,100943.16
2022-12-11T15:18:07.957Z,100937.06
2022-12-11T15:22:15.046Z,100942.19
2022-12-11T15:26:16.936Z,100950.94
2022-12-11T15:30:19.609Z,100943.91
2022-12-11T15:34:24.094Z,100950.06
2022-12-11T15:38:28.305Z,100950.84
2022-12-11T15:42:34.200Z,100949.22
2022-12-11T15:46:36.511Z,100951.75
2022-12-11T15:50:38.002Z,100957.97
2022-12-11T15:54:39.490Z,100955.19
2022-12-11T15:58:41.570Z,100948.97
2022-12-11T16:02:43.176Z,100945.81
2022-12-11T16:06:46.334Z,100944.63
2022-12-11T16:10:50.647Z,100944.91
2022-12-11T16:14:52.342Z,100951.03
2022-12-11T16:18:53.776Z,100951.03
2022-12-11T16:22:55.256Z,100953.94
2022-12-11T16:26:56.793Z,100960.19
2022-12-11T16:30:58.328Z,100949.81
2022-12-11T16:35:01.032Z,100957.31
2022-12-11T16:39:02.595Z,100949.03
2022-12-11T16:43:05.225Z,100955.84
2022-12-11T16:47:06.637Z,100957.50
2022-12-11T16:51:08.046Z,100967.06
2022-12-11T16:55:12.077Z,100960.50
2022-12-11T16:59:13.703Z,100954.84
2022-12-11T17:03:15.880Z,100941.81
2022-12-11T17:07:17.411Z,100937.50
2022-12-11T17:11:21.823Z,100931.69
2022-12-11T17:15:23.388Z,100929.19
2022-12-11T17:19:25.195Z,100942.69
2022-12-11T17:23:26.626Z,100944.28
2022-12-11T17:27:28.098Z,100943.81
2022-12-11T17:31:29.765Z,100941.34
2022-12-11T17:35:32.179Z,100939.41
2022-12-11T17:39:33.603Z,100933.84
2022-12-11T17:43:35.342Z,100939.06
2022-12-11T17:47:36.882Z,100943.19
2022-12-11T17:51:38.367Z,100934.28
2022-12-11T17:55:44.182Z,100936.91
2022-12-11T17:59:45.687Z,100930.50
2022-12-11T18:03:47.397Z,100921.72
2022-12-11T18:07:54.268Z,100926.34
2022-12-11T18:11:58.850Z,100924.06
2022-12-11T18:16:10.185Z,100928.66
2022-12-11T18:20:14.511Z,100937.31
2022-12-11T18:24:16.099Z,100944.38
2022-12-11T18:28:17.779Z,100949.13
2022-12-11T18:32:19.335Z,100945.44
2022-12-11T18:36:21.389Z,100954.88
2022-12-11T18:40:23.044Z,100946.16
2022-12-11T18:44:25.816Z,100946.81
2022-12-11T18:48:27.304Z,100946.56
2022-12-11T18:52:29.111Z,100950.63
2022-12-11T18:56:30.909Z,100954.13
2022-12-11T19:00:32.457Z,100945.31
2022-12-11T19:04:35.843Z,100938.13
2022-12-11T19:08:37.618Z,100946.91
2022-12-11T19:12:39.088Z,100945.00
2022-12-11T19:16:43.042Z,100941.41
2022-12-11T19:21:08.420Z,100942.31
2022-12-11T19:25:07.136Z,100941.19
2022-12-11T19:29:09.681Z,100945.88
2022-12-11T19:33:11.225Z,100946.63
2022-12-11T19:37:12.971Z,100957.44
2022-12-11T19:41:17.675Z,100954.66
2022-12-11T19:45:19.186Z,100942.75
2022-12-11T19:49:21.436Z,100952.22
2022-12-11T19:53:23.243Z,100949.84
2022-12-11T19:57:24.698Z,100954.78
2022-12-11T20:01:30.129Z,100947.34
2022-12-11T20:05:32.735Z,100954.94
2022-12-11T20:09:34.279Z,100940.94
2022-12-11T20:13:37.043Z,100950.38
2022-12-11T20:17:43.149Z,100948.19
2022-12-11T20:21:44.655Z,100948.31
2022-12-11T20:25:46.156Z,100952.94
2022-12-11T20:29:47.865Z,100947.34
2022-12-11T20:33:50.017Z,100950.09
2022-12-11T20:37:53.549Z,100951.69
2022-12-11T20:41:54.988Z,100950.84
2022-12-11T20:45:56.454Z,100948.22
2022-12-11T20:49:57.949Z,100955.03
2022-12-11T20:53:59.823Z,100954.28
2022-12-11T20:58:01.384Z,100961.59
2022-12-11T21:02:04.930Z,100960.53
2022-12-11T21:06:06.592Z,100962.25
2022-12-11T21:10:08.493Z,100970.50
2022-12-11T21:14:10.091Z,100975.66
2022-12-11T21:18:11.514Z,100969.84
2022-12-11T21:22:12.915Z,100969.81
2022-12-11T21:26:15.343Z,100971.50
2022-12-11T21:30:17.762Z,100964.22
2022-12-11T21:34:25.019Z,100970.59
2022-12-11T21:38:28.115Z,100967.22
2022-12-11T21:42:29.553Z,100969.59
2022-12-11T21:46:31.698Z,100968.66
2022-12-11T21:50:34.274Z,100966.34
2022-12-11T21:54:35.794Z,100971.78
2022-12-11T21:58:38.777Z,100970.50
2022-12-11T22:02:41.311Z,100958.75
2022-12-11T22:06:43.680Z,100969.34
2022-12-11T22:10:45.306Z,100970.38
2022-12-11T22:14:46.987Z,100966.53
2022-12-11T22:18:48.714Z,100970.56
2022-12-11T22:22:50.108Z,100966.59
2022-12-11T22:26:51.555Z,100967.91
2022-12-11T22:30:53.011Z,100972.25
2022-12-11T22:34:56.236Z,100963.56
2022-12-11T22:39:00.121Z,100968.72
2022-12-11T22:43:01.561Z,100963.78
2022-12-11T22:47:03.219Z,100959.47
2022-12-11T22:51:06.355Z,100969.72
2022-12-11T22:55:08.506Z,100960.97
2022-12-11T22:59:09.969Z,100979.97
2022-12-11T23:03:11.522Z,100976.03
2022-12-11T23:07:13.882Z,100968.88
2022-12-11T23:11:19.500Z,100976.88
2022-12-11T23:15:21.116Z,100975.94
2022-12-11T23:19:25.597Z,100970.97
2022-12-11T23:23:27.317Z,100981.59
2022-12-11T23:27:29.487Z,100982.03
2022-12-11T23:31:31.988Z,100987.84
2022-12-11T23:35:33.517Z,100986.66
2022-12-11T23:39:34.963Z,100983.06
2022-12-11T23:43:36.975Z,100989.84
2022-12-11T23:47:38.451Z,100996.78
2022-12-11T23:51:39.899Z,100995.22
2022-12-11T23:55:43.805Z,100992.25
2022-12-11T23:59:45.228Z,100995.06
